Terminal Aerodrome Forecast
Issued by NWS Wilmington, OH

Current Version | Previous Version | Text Only | Print | Product List | Glossary Off
Versions: 1 2 3 4 5 6 7 8 9 10 11 12 13 14 15 16 17 18 19 20 21

000
FTUS41 KILN 151134
TAFDAY
TAF
KDAY 151134Z 1512/1612 23004KT 4SM BR SCT050 SCT250
     FM151300 28005KT P6SM BKN050
     FM160000 23003KT P6SM SCT200
     FM160600 00000KT 5SM BR SCT200=

USA.gov is the U.S. government's official web portal to all federal, state and local government web resources and services.